Eastpoint, Florida
Current Conditions -  °F | °C
As of 2:53 PM on Tuesday 21 Oct 2014 (Local Time) from KAAF Reporting Station
Clear Clear  
Wind Chill: 80°   Ceiling: Unl
Heat Index: 81°   Visibility: 10mi
Dew Point: 62°   Wind: 9mph
Humidity: 54%   Direction: 160°SSE
Pressure: 29.95"   Gusts: NA
Location:  29.74°N, 84.88°W
Report Text: KAAF 211853Z AUTO 16008KT 10SM CLR 27/17 A2995 RMK AO2 SLP140 T02670167 TSNO
Loading
Personal Weather Stations






























Interactive Weather Map
Tropical Storm Tracking
New forecast layout! Learn more

10-Day Weather Forecast

Advertisements
Track Severe Weather on mobile